sensor_id;sensor_type;location;lat;lon;timestamp;pressure;altitude;pressure_sealevel;temperature;humidity
4590;BME280;2307;48.448;9.216;2023-10-08T00:00:43;96305.78;;;19.06;37.09
4590;BME280;2307;48.448;9.216;2023-10-08T00:03:12;96310.88;;;19.13;36.61
4590;BME280;2307;48.448;9.216;2023-10-08T00:05:39;96312.25;;;19.15;36.58
4590;BME280;2307;48.448;9.216;2023-10-08T00:08:06;96310.34;;;19.10;37.13
4590;BME280;2307;48.448;9.216;2023-10-08T00:10:34;96306.59;;;19.06;37.00
4590;BME280;2307;48.448;9.216;2023-10-08T00:13:01;96301.22;;;19.06;37.13
4590;BME280;2307;48.448;9.216;2023-10-08T00:15:28;96294.81;;;19.13;36.88
4590;BME280;2307;48.448;9.216;2023-10-08T00:17:57;96299.88;;;19.04;37.41
4590;BME280;2307;48.448;9.216;2023-10-08T00:20:25;96296.41;;;19.03;37.21
4590;BME280;2307;48.448;9.216;2023-10-08T00:23:00;96295.88;;;19.06;37.16
4590;BME280;2307;48.448;9.216;2023-10-08T00:25:27;96293.75;;;19.08;37.02
4590;BME280;2307;48.448;9.216;2023-10-08T00:27:56;96292.13;;;19.02;37.35
4590;BME280;2307;48.448;9.216;2023-10-08T00:30:22;96285.44;;;19.10;37.29
4590;BME280;2307;48.448;9.216;2023-10-08T00:32:49;96283.56;;;19.05;37.41
4590;BME280;2307;48.448;9.216;2023-10-08T00:35:16;96282.50;;;19.12;37.32
4590;BME280;2307;48.448;9.216;2023-10-08T00:37:47;96278.75;;;19.07;37.43
4590;BME280;2307;48.448;9.216;2023-10-08T00:40:13;96274.97;;;19.03;37.59
4590;BME280;2307;48.448;9.216;2023-10-08T00:42:46;96267.50;;;19.05;37.91
4590;BME280;2307;48.448;9.216;2023-10-08T00:45:13;96260.00;;;19.02;38.02
4590;BME280;2307;48.448;9.216;2023-10-08T00:47:39;96253.56;;;19.03;38.04
4590;BME280;2307;48.448;9.216;2023-10-08T00:50:08;96247.16;;;18.99;38.24
4590;BME280;2307;48.448;9.216;2023-10-08T00:52:44;96253.03;;;19.01;38.06
4590;BME280;2307;48.448;9.216;2023-10-08T00:55:24;96255.19;;;19.04;37.57
4590;BME280;2307;48.448;9.216;2023-10-08T00:57:55;96250.88;;;18.98;37.84
4590;BME280;2307;48.448;9.216;2023-10-08T01:00:23;96255.16;;;18.89;38.04
4590;BME280;2307;48.448;9.216;2023-10-08T01:02:57;96247.09;;;18.84;38.23
4590;BME280;2307;48.448;9.216;2023-10-08T01:05:26;96243.38;;;18.90;37.80
4590;BME280;2307;48.448;9.216;2023-10-08T01:08:02;96237.50;;;19.03;38.24
4590;BME280;2307;48.448;9.216;2023-10-08T01:10:32;96234.56;;;18.95;38.10
4590;BME280;2307;48.448;9.216;2023-10-08T01:12:59;96234.81;;;18.98;37.87
4590;BME280;2307;48.448;9.216;2023-10-08T01:15:30;96233.22;;;19.07;37.71
4590;BME280;2307;48.448;9.216;2023-10-08T01:18:01;96237.22;;;19.10;37.69
4590;BME280;2307;48.448;9.216;2023-10-08T01:20:29;96238.84;;;19.26;37.38
4590;BME280;2307;48.448;9.216;2023-10-08T01:23:01;96235.38;;;19.21;37.64
4590;BME280;2307;48.448;9.216;2023-10-08T01:25:30;96231.34;;;19.18;37.60
4590;BME280;2307;48.448;9.216;2023-10-08T01:27:56;96231.59;;;19.17;37.81
4590;BME280;2307;48.448;9.216;2023-10-08T01:30:26;96237.25;;;19.20;37.73
4590;BME280;2307;48.448;9.216;2023-10-08T01:32:59;96231.06;;;19.20;37.97
4590;BME280;2307;48.448;9.216;2023-10-08T01:35:27;96232.16;;;19.24;37.69
4590;BME280;2307;48.448;9.216;2023-10-08T01:37:57;96230.53;;;19.23;37.98
4590;BME280;2307;48.448;9.216;2023-10-08T01:40:26;96226.25;;;19.32;37.63
4590;BME280;2307;48.448;9.216;2023-10-08T01:42:54;96229.47;;;19.44;37.33
4590;BME280;2307;48.448;9.216;2023-10-08T01:45:24;96227.31;;;19.51;37.31
4590;BME280;2307;48.448;9.216;2023-10-08T01:47:51;96217.94;;;19.58;37.26
4590;BME280;2307;48.448;9.216;2023-10-08T01:50:19;96224.63;;;19.51;37.86
4590;BME280;2307;48.448;9.216;2023-10-08T01:52:47;96216.88;;;19.44;37.73
4590;BME280;2307;48.448;9.216;2023-10-08T01:55:13;96210.72;;;19.34;37.91
4590;BME280;2307;48.448;9.216;2023-10-08T01:57:46;96215.56;;;19.47;37.82
4590;BME280;2307;48.448;9.216;2023-10-08T02:00:12;96215.28;;;19.43;37.90
4590;BME280;2307;48.448;9.216;2023-10-08T02:02:44;96213.91;;;19.36;38.53
4590;BME280;2307;48.448;9.216;2023-10-08T02:05:10;96216.06;;;19.24;38.75
4590;BME280;2307;48.448;9.216;2023-10-08T02:07:39;96208.56;;;19.36;38.34
4590;BME280;2307;48.448;9.216;2023-10-08T02:10:06;96205.34;;;19.44;38.31
4590;BME280;2307;48.448;9.216;2023-10-08T02:12:35;96211.75;;;19.38;38.51
4590;BME280;2307;48.448;9.216;2023-10-08T02:15:04;96197.84;;;19.36;38.62
4590;BME280;2307;48.448;9.216;2023-10-08T02:17:30;96199.47;;;19.37;38.85
4590;BME280;2307;48.448;9.216;2023-10-08T02:19:57;96198.69;;;19.46;38.68
4590;BME280;2307;48.448;9.216;2023-10-08T02:22:24;96197.84;;;19.51;38.88
4590;BME280;2307;48.448;9.216;2023-10-08T02:24:50;96196.53;;;19.48;39.14
4590;BME280;2307;48.448;9.216;2023-10-08T02:27:18;96196.25;;;19.45;39.31
4590;BME280;2307;48.448;9.216;2023-10-08T02:29:44;96191.16;;;19.48;39.39
4590;BME280;2307;48.448;9.216;2023-10-08T02:32:12;96201.91;;;19.43;39.97
4590;BME280;2307;48.448;9.216;2023-10-08T02:34:39;96189.56;;;19.27;40.14
4590;BME280;2307;48.448;9.216;2023-10-08T02:37:05;96186.59;;;19.34;40.26
4590;BME280;2307;48.448;9.216;2023-10-08T02:39:31;96182.28;;;19.38;40.06
4590;BME280;2307;48.448;9.216;2023-10-08T02:42:00;96197.31;;;19.49;40.12
4590;BME280;2307;48.448;9.216;2023-10-08T02:44:26;96196.53;;;19.43;40.25
4590;BME280;2307;48.448;9.216;2023-10-08T02:46:53;96199.75;;;19.45;40.24
4590;BME280;2307;48.448;9.216;2023-10-08T02:49:21;96198.41;;;19.43;40.47
4590;BME280;2307;48.448;9.216;2023-10-08T02:51:48;96201.84;;;19.28;41.22
4590;BME280;2307;48.448;9.216;2023-10-08T02:54:15;96203.22;;;19.21;41.16
4590;BME280;2307;48.448;9.216;2023-10-08T02:56:43;96197.06;;;19.30;40.53
4590;BME280;2307;48.448;9.216;2023-10-08T02:59:10;96204.84;;;19.47;40.15
4590;BME280;2307;48.448;9.216;2023-10-08T03:01:37;96199.47;;;19.47;40.48
4590;BME280;2307;48.448;9.216;2023-10-08T03:04:05;96195.16;;;19.51;40.21
4590;BME280;2307;48.448;9.216;2023-10-08T03:06:41;96193.59;;;19.40;40.72
4590;BME280;2307;48.448;9.216;2023-10-08T03:09:07;96206.44;;;19.28;40.98
4590;BME280;2307;48.448;9.216;2023-10-08T03:11:33;96198.94;;;19.25;40.78
4590;BME280;2307;48.448;9.216;2023-10-08T03:14:02;96208.03;;;19.29;40.58
4590;BME280;2307;48.448;9.216;2023-10-08T03:16:28;96204.56;;;19.23;40.78
4590;BME280;2307;48.448;9.216;2023-10-08T03:18:59;96198.41;;;19.28;40.96
4590;BME280;2307;48.448;9.216;2023-10-08T03:21:26;96206.97;;;19.15;41.46
4590;BME280;2307;48.448;9.216;2023-10-08T03:24:08;96205.34;;;19.19;41.34
4590;BME280;2307;48.448;9.216;2023-10-08T03:26:49;96202.16;;;19.12;41.50
4590;BME280;2307;48.448;9.216;2023-10-08T03:29:20;96203.50;;;19.04;41.64
4590;BME280;2307;48.448;9.216;2023-10-08T03:31:47;96208.03;;;19.03;41.92
4590;BME280;2307;48.448;9.216;2023-10-08T03:34:16;96200.53;;;19.00;41.94
4590;BME280;2307;48.448;9.216;2023-10-08T03:36:43;96200.53;;;18.90;42.12
4590;BME280;2307;48.448;9.216;2023-10-08T03:39:11;96197.31;;;18.78;42.32
4590;BME280;2307;48.448;9.216;2023-10-08T03:41:39;96197.31;;;18.78;42.38
4590;BME280;2307;48.448;9.216;2023-10-08T03:44:06;96192.50;;;18.75;41.99
4590;BME280;2307;48.448;9.216;2023-10-08T03:46:37;96197.88;;;18.80;41.68
4590;BME280;2307;48.448;9.216;2023-10-08T03:49:06;96201.59;;;18.84;41.49
4590;BME280;2307;48.448;9.216;2023-10-08T03:51:39;96202.69;;;18.88;41.30
4590;BME280;2307;48.448;9.216;2023-10-08T03:54:06;96204.28;;;18.84;41.42
4590;BME280;2307;48.448;9.216;2023-10-08T03:56:42;96197.59;;;18.82;41.70
4590;BME280;2307;48.448;9.216;2023-10-08T03:59:11;96206.44;;;18.82;42.13
4590;BME280;2307;48.448;9.216;2023-10-08T04:01:39;96202.13;;;18.81;41.99
4590;BME280;2307;48.448;9.216;2023-10-08T04:04:07;96195.72;;;18.67;42.48
4590;BME280;2307;48.448;9.216;2023-10-08T04:06:38;96202.91;;;18.62;43.21
4590;BME280;2307;48.448;9.216;2023-10-08T04:09:04;96198.09;;;18.69;41.65
4590;BME280;2307;48.448;9.216;2023-10-08T04:11:42;96204.56;;;18.68;41.96
4590;BME280;2307;48.448;9.216;2023-10-08T04:14:19;96211.22;;;18.65;42.24
4590;BME280;2307;48.448;9.216;2023-10-08T04:16:46;96207.22;;;18.58;41.88
4590;BME280;2307;48.448;9.216;2023-10-08T04:19:16;96204.28;;;18.69;41.80
4590;BME280;2307;48.448;9.216;2023-10-08T04:21:43;96205.63;;;18.67;41.93
4590;BME280;2307;48.448;9.216;2023-10-08T04:24:10;96214.97;;;18.64;42.12
4590;BME280;2307;48.448;9.216;2023-10-08T04:26:39;96213.38;;;18.63;42.53
4590;BME280;2307;48.448;9.216;2023-10-08T04:29:07;96218.16;;;18.51;42.85
4590;BME280;2307;48.448;9.216;2023-10-08T04:31:34;96216.22;;;18.41;42.84
4590;BME280;2307;48.448;9.216;2023-10-08T04:34:09;96218.34;;;18.39;42.84
4590;BME280;2307;48.448;9.216;2023-10-08T04:36:40;96219.72;;;18.42;42.55
4590;BME280;2307;48.448;9.216;2023-10-08T04:39:07;96225.59;;;18.39;42.89
4590;BME280;2307;48.448;9.216;2023-10-08T04:41:38;96215.41;;;18.36;42.88
4590;BME280;2307;48.448;9.216;2023-10-08T04:44:09;96215.41;;;18.36;42.82
4590;BME280;2307;48.448;9.216;2023-10-08T04:46:40;96205.75;;;18.30;42.99
4590;BME280;2307;48.448;9.216;2023-10-08T04:49:12;96208.41;;;18.30;42.90
4590;BME280;2307;48.448;9.216;2023-10-08T04:51:52;96204.13;;;18.19;43.56
4590;BME280;2307;48.448;9.216;2023-10-08T04:54:22;96208.09;;;18.11;43.42
4590;BME280;2307;48.448;9.216;2023-10-08T04:56:48;96211.03;;;18.10;43.79
4590;BME280;2307;48.448;9.216;2023-10-08T04:59:16;96204.91;;;18.14;43.61
4590;BME280;2307;48.448;9.216;2023-10-08T05:01:46;96213.47;;;18.16;43.61
4590;BME280;2307;48.448;9.216;2023-10-08T05:04:14;96204.13;;;18.14;43.47
4590;BME280;2307;48.448;9.216;2023-10-08T05:06:51;96209.19;;;18.15;43.54
4590;BME280;2307;48.448;9.216;2023-10-08T05:09:42;96209.22;;;18.25;43.36
4590;BME280;2307;48.448;9.216;2023-10-08T05:12:17;96207.88;;;18.23;43.42
4590;BME280;2307;48.448;9.216;2023-10-08T05:15:01;96214.88;;;18.29;43.44
4590;BME280;2307;48.448;9.216;2023-10-08T05:17:50;96214.81;;;18.19;43.37
4590;BME280;2307;48.448;9.216;2023-10-08T05:20:38;96204.16;;;18.29;42.98
4590;BME280;2307;48.448;9.216;2023-10-08T05:23:24;96209.50;;;18.29;43.05
4590;BME280;2307;48.448;9.216;2023-10-08T05:26:05;96212.72;;;18.31;43.26
4590;BME280;2307;48.448;9.216;2023-10-08T05:28:45;96213.81;;;18.35;43.25
4590;BME280;2307;48.448;9.216;2023-10-08T05:31:14;96216.47;;;18.40;43.04
4590;BME280;2307;48.448;9.216;2023-10-08T05:34:03;96215.66;;;18.39;43.33
4590;BME280;2307;48.448;9.216;2023-10-08T05:36:40;96221.31;;;18.33;43.68
4590;BME280;2307;48.448;9.216;2023-10-08T05:39:26;96219.06;;;18.15;44.20
4590;BME280;2307;48.448;9.216;2023-10-08T05:41:55;96221.69;;;17.99;44.92
4590;BME280;2307;48.448;9.216;2023-10-08T05:44:38;96216.28;;;17.89;45.44
4590;BME280;2307;48.448;9.216;2023-10-08T05:47:06;96216.81;;;17.86;45.90
4590;BME280;2307;48.448;9.216;2023-10-08T05:49:49;96220.00;;;17.83;45.93
4590;BME280;2307;48.448;9.216;2023-10-08T05:52:34;96222.41;;;17.80;46.15
4590;BME280;2307;48.448;9.216;2023-10-08T05:55:16;96224.81;;;17.81;45.91
4590;BME280;2307;48.448;9.216;2023-10-08T05:57:50;96234.00;;;18.05;45.27
4590;BME280;2307;48.448;9.216;2023-10-08T06:00:28;96235.06;;;18.04;45.67
4590;BME280;2307;48.448;9.216;2023-10-08T06:03:29;96244.19;;;18.03;46.09
4590;BME280;2307;48.448;9.216;2023-10-08T06:06:01;96243.63;;;18.01;46.29
4590;BME280;2307;48.448;9.216;2023-10-08T06:08:44;96236.41;;;18.02;46.25
4590;BME280;2307;48.448;9.216;2023-10-08T06:11:28;96251.59;;;17.91;46.76
4590;BME280;2307;48.448;9.216;2023-10-08T06:14:06;96254.81;;;17.93;46.79
4590;BME280;2307;48.448;9.216;2023-10-08T06:16:41;96257.56;;;18.09;46.20
4590;BME280;2307;48.448;9.216;2023-10-08T06:19:10;96263.53;;;18.26;45.51
4590;BME280;2307;48.448;9.216;2023-10-08T06:21:38;96260.03;;;18.30;45.77
4590;BME280;2307;48.448;9.216;2023-10-08T06:24:04;96262.72;;;18.25;46.34
4590;BME280;2307;48.448;9.216;2023-10-08T06:26:34;96264.56;;;18.20;46.71
4590;BME280;2307;48.448;9.216;2023-10-08T06:29:03;96265.09;;;18.27;46.59
4590;BME280;2307;48.448;9.216;2023-10-08T06:31:43;96272.91;;;18.33;46.06
4590;BME280;2307;48.448;9.216;2023-10-08T06:34:17;96278.53;;;18.32;50.50
4590;BME280;2307;48.448;9.216;2023-10-08T06:36:46;96276.31;;;18.19;50.43
4590;BME280;2307;48.448;9.216;2023-10-08T06:39:12;96280.34;;;18.21;48.99
4590;BME280;2307;48.448;9.216;2023-10-08T06:41:44;96276.31;;;18.19;48.88
4590;BME280;2307;48.448;9.216;2023-10-08T06:44:11;96279.00;;;18.19;48.95
4590;BME280;2307;48.448;9.216;2023-10-08T06:46:39;96274.19;;;18.16;49.38
4590;BME280;2307;48.448;9.216;2023-10-08T06:49:06;96279.56;;;18.26;48.61
4590;BME280;2307;48.448;9.216;2023-10-08T06:51:38;96281.97;;;18.27;48.61
4590;BME280;2307;48.448;9.216;2023-10-08T06:54:04;96285.50;;;18.33;47.73
4590;BME280;2307;48.448;9.216;2023-10-08T06:56:35;96285.22;;;18.39;47.43
4590;BME280;2307;48.448;9.216;2023-10-08T06:59:01;96269.69;;;18.36;48.30
4590;BME280;2307;48.448;9.216;2023-10-08T07:01:28;96280.13;;;18.33;48.16
4590;BME280;2307;48.448;9.216;2023-10-08T07:04:04;96279.06;;;18.34;47.69
4590;BME280;2307;48.448;9.216;2023-10-08T07:06:31;96275.09;;;18.41;47.68
4590;BME280;2307;48.448;9.216;2023-10-08T07:09:00;96269.50;;;18.48;48.08
4590;BME280;2307;48.448;9.216;2023-10-08T07:11:30;96268.41;;;18.49;47.39
4590;BME280;2307;48.448;9.216;2023-10-08T07:13:59;96267.91;;;18.52;47.06
4590;BME280;2307;48.448;9.216;2023-10-08T07:16:26;96260.47;;;18.74;46.40
4590;BME280;2307;48.448;9.216;2023-10-08T07:18:53;96266.38;;;18.81;46.48
4590;BME280;2307;48.448;9.216;2023-10-08T07:21:26;96263.72;;;18.76;46.21
4590;BME280;2307;48.448;9.216;2023-10-08T07:23:54;96262.66;;;18.82;46.51
4590;BME280;2307;48.448;9.216;2023-10-08T07:26:26;96259.97;;;18.82;46.20
4590;BME280;2307;48.448;9.216;2023-10-08T07:29:01;96265.59;;;18.91;46.03
4590;BME280;2307;48.448;9.216;2023-10-08T07:31:30;96257.31;;;19.02;45.59
4590;BME280;2307;48.448;9.216;2023-10-08T07:33:59;96259.47;;;19.10;45.30
4590;BME280;2307;48.448;9.216;2023-10-08T07:36:40;96258.38;;;19.17;45.19
4590;BME280;2307;48.448;9.216;2023-10-08T07:39:07;96254.66;;;19.18;45.11
4590;BME280;2307;48.448;9.216;2023-10-08T07:41:46;96261.34;;;19.20;45.29
4590;BME280;2307;48.448;9.216;2023-10-08T07:44:13;96256.78;;;19.21;45.12
4590;BME280;2307;48.448;9.216;2023-10-08T07:46:39;96252.50;;;19.30;44.15
4590;BME280;2307;48.448;9.216;2023-10-08T07:49:06;96258.91;;;19.29;44.12
4590;BME280;2307;48.448;9.216;2023-10-08T07:51:32;96261.63;;;19.34;43.86
4590;BME280;2307;48.448;9.216;2023-10-08T07:53:59;96263.25;;;19.40;43.67
4590;BME280;2307;48.448;9.216;2023-10-08T07:56:26;96267.25;;;19.57;43.32
4590;BME280;2307;48.448;9.216;2023-10-08T07:58:53;96261.09;;;19.62;43.31
4590;BME280;2307;48.448;9.216;2023-10-08T08:01:20;96264.28;;;19.74;42.71
4590;BME280;2307;48.448;9.216;2023-10-08T08:03:50;96277.13;;;19.87;41.77
4590;BME280;2307;48.448;9.216;2023-10-08T08:06:16;96274.44;;;19.97;42.11
4590;BME280;2307;48.448;9.216;2023-10-08T08:08:43;96283.22;;;20.13;42.12
4590;BME280;2307;48.448;9.216;2023-10-08T08:11:10;96280.22;;;20.35;41.76
4590;BME280;2307;48.448;9.216;2023-10-08T08:13:38;96273.69;;;20.56;40.80
4590;BME280;2307;48.448;9.216;2023-10-08T08:16:08;96276.28;;;20.71;40.69
4590;BME280;2307;48.448;9.216;2023-10-08T08:18:46;96278.41;;;20.74;40.88
4590;BME280;2307;48.448;9.216;2023-10-08T08:21:14;96283.19;;;20.87;41.31
4590;BME280;2307;48.448;9.216;2023-10-08T08:23:41;96288.81;;;20.91;42.30
4590;BME280;2307;48.448;9.216;2023-10-08T08:26:12;96290.66;;;20.95;41.10
4590;BME280;2307;48.448;9.216;2023-10-08T08:28:51;96291.69;;;20.99;42.21
4590;BME280;2307;48.448;9.216;2023-10-08T08:31:20;96292.25;;;20.96;44.49
4590;BME280;2307;48.448;9.216;2023-10-08T08:33:48;96295.72;;;21.02;43.45
4590;BME280;2307;48.448;9.216;2023-10-08T08:36:22;96296.22;;;21.09;42.57
4590;BME280;2307;48.448;9.216;2023-10-08T08:38:49;96285.03;;;20.92;42.71
4590;BME280;2307;48.448;9.216;2023-10-08T08:41:16;96298.47;;;20.87;42.19
4590;BME280;2307;48.448;9.216;2023-10-08T08:43:44;96295.22;;;20.95;41.38
4590;BME280;2307;48.448;9.216;2023-10-08T08:46:13;96297.41;;;20.93;40.19
4590;BME280;2307;48.448;9.216;2023-10-08T08:48:42;96301.97;;;20.92;40.75
4590;BME280;2307;48.448;9.216;2023-10-08T08:51:09;96294.63;;;21.03;41.14
4590;BME280;2307;48.448;9.216;2023-10-08T08:53:36;96292.22;;;21.01;40.97
4590;BME280;2307;48.448;9.216;2023-10-08T08:56:03;96296.03;;;20.95;39.02
4590;BME280;2307;48.448;9.216;2023-10-08T08:58:34;96295.44;;;21.03;38.69
4590;BME280;2307;48.448;9.216;2023-10-08T09:01:01;96289.25;;;21.08;38.62
4590;BME280;2307;48.448;9.216;2023-10-08T09:03:28;96291.09;;;21.12;38.37
4590;BME280;2307;48.448;9.216;2023-10-08T09:05:58;96298.84;;;21.19;37.75
4590;BME280;2307;48.448;9.216;2023-10-08T09:08:27;96306.66;;;21.21;37.49
4590;BME280;2307;48.448;9.216;2023-10-08T09:10:58;96310.03;;;21.31;37.96
4590;BME280;2307;48.448;9.216;2023-10-08T09:13:26;96325.03;;;21.42;37.96
4590;BME280;2307;48.448;9.216;2023-10-08T09:15:56;96331.16;;;21.48;36.51
4590;BME280;2307;48.448;9.216;2023-10-08T09:18:23;96328.91;;;21.60;36.77
4590;BME280;2307;48.448;9.216;2023-10-08T09:20:52;96331.09;;;21.58;36.81
4590;BME280;2307;48.448;9.216;2023-10-08T09:23:21;96332.94;;;21.62;38.35
4590;BME280;2307;48.448;9.216;2023-10-08T09:25:48;96331.72;;;21.79;37.88
4590;BME280;2307;48.448;9.216;2023-10-08T09:28:17;96332.47;;;21.89;37.75
4590;BME280;2307;48.448;9.216;2023-10-08T09:30:44;96338.31;;;21.96;38.89
4590;BME280;2307;48.448;9.216;2023-10-08T09:33:13;96335.06;;;21.99;37.69
4590;BME280;2307;48.448;9.216;2023-10-08T09:35:40;96348.75;;;22.03;37.17
4590;BME280;2307;48.448;9.216;2023-10-08T09:38:08;96338.25;;;22.01;37.06
4590;BME280;2307;48.448;9.216;2023-10-08T09:40:36;96334.44;;;22.07;37.84
4590;BME280;2307;48.448;9.216;2023-10-08T09:43:03;96347.31;;;22.10;37.68
4590;BME280;2307;48.448;9.216;2023-10-08T09:45:30;96354.81;;;22.13;38.50
4590;BME280;2307;48.448;9.216;2023-10-08T09:47:56;96356.44;;;22.14;38.04
4590;BME280;2307;48.448;9.216;2023-10-08T09:50:26;96345.09;;;22.17;37.85
4590;BME280;2307;48.448;9.216;2023-10-08T09:52:56;96349.09;;;22.20;37.66
4590;BME280;2307;48.448;9.216;2023-10-08T09:55:26;96346.25;;;22.11;37.79
4590;BME280;2307;48.448;9.216;2023-10-08T09:57:54;96348.44;;;22.09;37.25
4590;BME280;2307;48.448;9.216;2023-10-08T10:00:22;96346.72;;;22.18;37.75
4590;BME280;2307;48.448;9.216;2023-10-08T10:02:56;96350.47;;;22.17;37.18
4590;BME280;2307;48.448;9.216;2023-10-08T10:05:27;96347.53;;;22.19;37.09
4590;BME280;2307;48.448;9.216;2023-10-08T10:07:54;96356.84;;;22.27;37.53
4590;BME280;2307;48.448;9.216;2023-10-08T10:10:25;96353.25;;;22.36;37.41
4590;BME280;2307;48.448;9.216;2023-10-08T10:12:52;96348.78;;;22.50;37.69
4590;BME280;2307;48.448;9.216;2023-10-08T10:15:20;96348.38;;;22.67;37.73
4590;BME280;2307;48.448;9.216;2023-10-08T10:17:48;96359.22;;;22.81;37.26
4590;BME280;2307;48.448;9.216;2023-10-08T10:20:15;96356.13;;;22.92;37.93
4590;BME280;2307;48.448;9.216;2023-10-08T10:22:41;96360.38;;;22.98;36.82
4590;BME280;2307;48.448;9.216;2023-10-08T10:25:09;96357.66;;;22.98;36.25
4590;BME280;2307;48.448;9.216;2023-10-08T10:27:42;96356.25;;;22.82;36.32
4590;BME280;2307;48.448;9.216;2023-10-08T10:30:31;96348.69;;;22.84;37.56
4590;BME280;2307;48.448;9.216;2023-10-08T10:33:00;96354.06;;;22.84;36.95
4590;BME280;2307;48.448;9.216;2023-10-08T10:35:26;96339.97;;;22.92;37.19
4590;BME280;2307;48.448;9.216;2023-10-08T10:37:53;96348.34;;;23.09;37.14
4590;BME280;2307;48.448;9.216;2023-10-08T10:40:20;96348.50;;;23.18;36.91
4590;BME280;2307;48.448;9.216;2023-10-08T10:42:55;96343.31;;;23.21;35.85
4590;BME280;2307;48.448;9.216;2023-10-08T10:45:22;96343.16;;;23.32;36.23
4590;BME280;2307;48.448;9.216;2023-10-08T10:48:07;96334.59;;;23.29;35.86
4590;BME280;2307;48.448;9.216;2023-10-08T10:50:38;96332.38;;;23.32;35.52
4590;BME280;2307;48.448;9.216;2023-10-08T10:53:13;96330.66;;;23.41;35.31
4590;BME280;2307;48.448;9.216;2023-10-08T10:55:39;96320.03;;;23.49;35.91
4590;BME280;2307;48.448;9.216;2023-10-08T10:58:13;96326.72;;;23.52;35.94
4590;BME280;2307;48.448;9.216;2023-10-08T11:00:41;96329.97;;;23.67;35.51
4590;BME280;2307;48.448;9.216;2023-10-08T11:03:23;96326.03;;;23.92;35.53
4590;BME280;2307;48.448;9.216;2023-10-08T11:05:50;96326.22;;;24.14;34.41
4590;BME280;2307;48.448;9.216;2023-10-08T11:08:20;96325.16;;;24.43;33.91
4590;BME280;2307;48.448;9.216;2023-10-08T11:10:48;96318.84;;;24.61;33.67
4590;BME280;2307;48.448;9.216;2023-10-08T11:13:16;96315.16;;;24.84;33.52
4590;BME280;2307;48.448;9.216;2023-10-08T11:15:43;96312.53;;;24.93;32.93
4590;BME280;2307;48.448;9.216;2023-10-08T11:18:14;96315.88;;;25.12;32.88
4590;BME280;2307;48.448;9.216;2023-10-08T11:20:42;96312.06;;;25.26;33.19
4590;BME280;2307;48.448;9.216;2023-10-08T11:23:09;96313.97;;;25.48;32.97
4590;BME280;2307;48.448;9.216;2023-10-08T11:25:54;96316.91;;;25.52;31.51
4590;BME280;2307;48.448;9.216;2023-10-08T11:28:23;96322.56;;;25.64;31.68
4590;BME280;2307;48.448;9.216;2023-10-08T11:30:52;96320.03;;;25.67;31.70
4590;BME280;2307;48.448;9.216;2023-10-08T11:33:19;96327.91;;;25.77;31.85
4590;BME280;2307;48.448;9.216;2023-10-08T11:35:57;96317.63;;;25.66;32.15
4590;BME280;2307;48.448;9.216;2023-10-08T11:38:25;96315.09;;;25.69;32.17
4590;BME280;2307;48.448;9.216;2023-10-08T11:40:52;96317.28;;;25.81;32.50
4590;BME280;2307;48.448;9.216;2023-10-08T11:43:21;96320.28;;;25.79;32.23
4590;BME280;2307;48.448;9.216;2023-10-08T11:45:47;96318.50;;;25.75;32.69
4590;BME280;2307;48.448;9.216;2023-10-08T11:48:14;96318.25;;;25.63;32.87
4590;BME280;2307;48.448;9.216;2023-10-08T11:50:47;96320.19;;;25.49;32.37
4590;BME280;2307;48.448;9.216;2023-10-08T11:53:17;96312.00;;;25.18;32.28
4590;BME280;2307;48.448;9.216;2023-10-08T11:55:44;96313.38;;;25.15;32.99
4590;BME280;2307;48.448;9.216;2023-10-08T11:58:13;96300.97;;;25.14;32.95
4590;BME280;2307;48.448;9.216;2023-10-08T12:00:42;96293.97;;;25.13;32.45
4590;BME280;2307;48.448;9.216;2023-10-08T12:03:17;96298.09;;;25.11;33.96
4590;BME280;2307;48.448;9.216;2023-10-08T12:05:44;96305.88;;;25.12;34.17
4590;BME280;2307;48.448;9.216;2023-10-08T12:08:13;96303.16;;;25.12;34.14
4590;BME280;2307;48.448;9.216;2023-10-08T12:10:42;96298.19;;;25.06;33.95
4590;BME280;2307;48.448;9.216;2023-10-08T12:13:11;96301.34;;;25.21;34.09
4590;BME280;2307;48.448;9.216;2023-10-08T12:15:37;96304.44;;;25.28;34.07
4590;BME280;2307;48.448;9.216;2023-10-08T12:18:06;96298.16;;;25.42;33.49
4590;BME280;2307;48.448;9.216;2023-10-08T12:20:38;96298.16;;;25.42;33.80
4590;BME280;2307;48.448;9.216;2023-10-08T12:23:09;96295.13;;;25.57;33.45
4590;BME280;2307;48.448;9.216;2023-10-08T12:25:35;96291.06;;;25.46;33.12
4590;BME280;2307;48.448;9.216;2023-10-08T12:28:05;96290.72;;;25.47;33.17
4590;BME280;2307;48.448;9.216;2023-10-08T12:30:31;96291.34;;;25.44;33.31
4590;BME280;2307;48.448;9.216;2023-10-08T12:33:06;96284.78;;;25.36;33.13
4590;BME280;2307;48.448;9.216;2023-10-08T12:35:35;96284.25;;;25.34;33.72
4590;BME280;2307;48.448;9.216;2023-10-08T12:38:02;96291.78;;;25.37;34.37
4590;BME280;2307;48.448;9.216;2023-10-08T12:40:30;96284.50;;;25.47;33.29
4590;BME280;2307;48.448;9.216;2023-10-08T12:43:09;96275.31;;;25.48;32.97
4590;BME280;2307;48.448;9.216;2023-10-08T12:45:35;96275.50;;;25.51;33.77
4590;BME280;2307;48.448;9.216;2023-10-08T12:48:03;96260.56;;;25.54;33.51
4590;BME280;2307;48.448;9.216;2023-10-08T12:50:30;96270.66;;;25.62;33.35
4590;BME280;2307;48.448;9.216;2023-10-08T12:53:07;96272.84;;;25.60;33.37
4590;BME280;2307;48.448;9.216;2023-10-08T12:55:33;96272.34;;;25.49;33.19
4590;BME280;2307;48.448;9.216;2023-10-08T12:58:04;96273.22;;;25.67;33.00
4590;BME280;2307;48.448;9.216;2023-10-08T13:00:36;96275.22;;;25.75;33.10
4590;BME280;2307;48.448;9.216;2023-10-08T13:03:06;96274.25;;;25.79;33.25
4590;BME280;2307;48.448;9.216;2023-10-08T13:05:40;96272.63;;;26.01;32.03
4590;BME280;2307;48.448;9.216;2023-10-08T13:08:09;96266.91;;;26.02;32.01
4590;BME280;2307;48.448;9.216;2023-10-08T13:10:38;96255.41;;;26.27;31.52
4590;BME280;2307;48.448;9.216;2023-10-08T13:13:09;96272.38;;;26.42;31.57
4590;BME280;2307;48.448;9.216;2023-10-08T13:15:37;96259.91;;;26.40;31.33
4590;BME280;2307;48.448;9.216;2023-10-08T13:18:03;96254.38;;;26.54;31.12
4590;BME280;2307;48.448;9.216;2023-10-08T13:20:30;96259.94;;;26.58;31.81
4590;BME280;2307;48.448;9.216;2023-10-08T13:22:58;96264.13;;;26.64;30.72
4590;BME280;2307;48.448;9.216;2023-10-08T13:25:24;96264.47;;;26.79;30.23
4590;BME280;2307;48.448;9.216;2023-10-08T13:27:52;96258.28;;;26.87;31.33
4590;BME280;2307;48.448;9.216;2023-10-08T13:30:19;96251.94;;;26.92;29.76
4590;BME280;2307;48.448;9.216;2023-10-08T13:32:47;96254.47;;;27.23;29.66
4590;BME280;2307;48.448;9.216;2023-10-08T13:35:14;96249.50;;;27.59;30.53
4590;BME280;2307;48.448;9.216;2023-10-08T13:37:40;96235.13;;;27.76;28.61